createdAt,value
2019-05-18T00:01:12.909Z,12.20
2019-05-18T00:07:17.542Z,10.90
2019-05-18T00:13:22.114Z,13.47
2019-05-18T00:19:26.808Z,12.07
2019-05-18T00:25:31.389Z,12.97
2019-05-18T00:31:36.016Z,12.57
2019-05-18T00:37:40.571Z,14.30
2019-05-18T00:43:45.113Z,14.63
2019-05-18T00:49:49.679Z,13.77
2019-05-18T00:55:54.295Z,12.73
2019-05-18T01:01:58.853Z,15.03
2019-05-18T01:08:03.411Z,14.53
2019-05-18T01:14:08.040Z,14.27
2019-05-18T01:20:14.261Z,13.67
2019-05-18T01:26:18.898Z,13.50
2019-05-18T01:32:23.516Z,14.87
2019-05-18T01:38:28.227Z,15.97
2019-05-18T01:44:33.317Z,14.70
2019-05-18T01:50:37.875Z,12.40
2019-05-18T01:56:42.431Z,13.90
2019-05-18T02:02:46.994Z,15.20
2019-05-18T02:08:51.615Z,15.90
2019-05-18T02:14:56.199Z,15.17
2019-05-18T02:21:00.768Z,15.70
2019-05-18T02:27:05.395Z,17.77
2019-05-18T02:33:10.049Z,16.50
2019-05-18T02:39:14.585Z,14.50
2019-05-18T02:45:19.287Z,16.00
2019-05-18T02:51:23.935Z,19.30
2019-05-18T02:57:28.492Z,16.00
2019-05-18T03:03:33.059Z,17.70
2019-05-18T03:09:37.686Z,16.00
2019-05-18T03:15:42.229Z,17.33
2019-05-18T03:21:46.836Z,18.40
2019-05-18T03:27:51.462Z,17.10
2019-05-18T03:33:56.129Z,19.03
2019-05-18T03:40:00.681Z,18.23
2019-05-18T03:46:05.364Z,16.00
2019-05-18T03:52:09.913Z,17.63
2019-05-18T03:58:14.473Z,20.07
2019-05-18T04:04:19.024Z,15.17
2019-05-18T04:10:27.323Z,19.33
2019-05-18T04:16:31.876Z,17.50
2019-05-18T04:22:36.529Z,16.57
2019-05-18T04:28:41.060Z,16.50
2019-05-18T04:34:45.606Z,14.87
2019-05-18T04:40:50.290Z,14.40
2019-05-18T04:46:55.020Z,15.30
2019-05-18T04:52:59.602Z,13.10
2019-05-18T04:59:04.245Z,13.60
2019-05-18T05:05:09.056Z,12.97
2019-05-18T05:11:13.599Z,13.40
2019-05-18T05:17:18.144Z,13.10
2019-05-18T05:23:22.770Z,11.63
2019-05-18T05:29:27.393Z,12.60
2019-05-18T05:35:32.020Z,22.77
2019-05-18T05:41:36.570Z,16.17
2019-05-18T05:47:41.126Z,12.17
2019-05-18T05:53:45.686Z,12.83
2019-05-18T05:59:50.244Z,11.70
2019-05-18T06:05:54.816Z,15.30
2019-05-18T06:11:59.405Z,14.30
2019-05-18T06:18:04.029Z,14.73
2019-05-18T06:24:08.627Z,13.43
2019-05-18T06:30:14.138Z,14.20
2019-05-18T06:36:18.731Z,13.20
2019-05-18T06:42:23.340Z,13.10
2019-05-18T06:48:27.941Z,13.07
2019-05-18T06:54:32.569Z,15.57
2019-05-18T07:00:37.141Z,18.33
2019-05-18T07:06:41.747Z,26.73
2019-05-18T07:12:46.392Z,23.43
2019-05-18T07:18:51.307Z,13.33
2019-05-18T07:24:55.981Z,12.87
2019-05-18T07:31:00.554Z,11.10
2019-05-18T07:37:05.580Z,10.77
2019-05-18T07:43:10.237Z,10.10
2019-05-18T07:49:14.827Z,10.53
2019-05-18T07:55:19.455Z,10.40
2019-05-18T08:01:24.230Z,8.17
2019-05-18T08:07:28.829Z,8.17
2019-05-18T08:13:33.408Z,6.90
2019-05-18T08:19:38.108Z,7.17
2019-05-18T08:25:42.748Z,7.07
2019-05-18T08:31:47.324Z,7.13
2019-05-18T08:37:51.972Z,6.37
2019-05-18T08:43:56.681Z,5.43
2019-05-18T08:50:03.156Z,5.90
2019-05-18T08:56:07.823Z,4.80
2019-05-18T09:02:12.672Z,3.80
2019-05-18T09:08:17.286Z,3.60
2019-05-18T09:14:23.535Z,4.10
2019-05-18T09:20:28.225Z,6.07
2019-05-18T09:26:33.240Z,6.47
2019-05-18T09:32:37.799Z,6.13
2019-05-18T09:38:43.173Z,5.47
2019-05-18T09:44:47.788Z,5.60
2019-05-18T09:50:52.342Z,4.77
2019-05-18T09:56:56.921Z,5.87
2019-05-18T10:03:03.382Z,5.17
2019-05-18T10:09:09.406Z,4.50
2019-05-18T10:15:14.403Z,5.10
2019-05-18T10:21:19.001Z,5.60
2019-05-18T10:27:23.770Z,5.17
2019-05-18T10:33:28.334Z,4.60
2019-05-18T10:39:33.150Z,5.30
2019-05-18T10:45:38.424Z,4.37
2019-05-18T10:51:44.282Z,5.73
2019-05-18T10:57:48.943Z,5.30
2019-05-18T11:03:53.632Z,4.60
2019-05-18T11:09:58.864Z,5.17
2019-05-18T11:16:03.475Z,5.30
2019-05-18T11:22:08.935Z,5.07
2019-05-18T11:28:24.392Z,5.00
2019-05-18T11:34:29.193Z,5.73
2019-05-18T11:40:41.540Z,5.53
2019-05-18T11:46:46.266Z,5.50
2019-05-18T11:52:51.916Z,5.43
2019-05-18T11:58:56.865Z,6.60
2019-05-18T12:05:01.635Z,5.43
2019-05-18T12:11:06.449Z,6.33
2019-05-18T12:17:11.086Z,6.87
2019-05-18T12:23:15.778Z,7.00
2019-05-18T12:29:21.392Z,7.20
2019-05-18T12:35:27.023Z,7.07
2019-05-18T12:41:31.869Z,6.57
2019-05-18T12:47:36.574Z,6.77
2019-05-18T12:53:41.320Z,6.20
2019-05-18T12:59:45.982Z,5.30
2019-05-18T13:05:51.729Z,5.83
2019-05-18T13:11:56.498Z,5.60
2019-05-18T13:18:03.223Z,6.47
2019-05-18T13:24:08.642Z,5.07
2019-05-18T13:30:14.864Z,5.60
2019-05-18T13:36:19.666Z,5.90
2019-05-18T13:42:26.030Z,5.00
2019-05-18T13:48:33.463Z,4.83
2019-05-18T13:54:39.193Z,5.80
2019-05-18T14:00:46.091Z,5.00
2019-05-18T14:06:50.657Z,4.60
2019-05-18T14:12:55.278Z,4.67
2019-05-18T14:18:59.916Z,4.57
2019-05-18T14:25:18.564Z,3.90
2019-05-18T14:31:14.815Z,4.50
2019-05-18T14:37:19.648Z,4.20
2019-05-18T14:43:24.281Z,4.57
2019-05-18T14:49:28.940Z,5.30
2019-05-18T14:55:34.214Z,4.10
2019-05-18T15:01:38.985Z,4.50
2019-05-18T15:07:43.603Z,4.60
2019-05-18T15:13:48.318Z,4.13
2019-05-18T15:19:53.816Z,4.97
2019-05-18T15:26:04.907Z,3.90
2019-05-18T15:32:09.569Z,4.20
2019-05-18T15:38:14.563Z,5.00
2019-05-18T15:44:20.564Z,4.20
2019-05-18T15:50:25.556Z,4.77
2019-05-18T15:56:30.288Z,4.33
2019-05-18T16:02:35.043Z,5.30
2019-05-18T16:08:39.758Z,5.07
2019-05-18T16:14:44.450Z,4.50
2019-05-18T16:20:49.114Z,4.80
2019-05-18T16:26:53.816Z,4.60
2019-05-18T16:32:58.372Z,4.40
2019-05-18T16:39:02.958Z,4.30
2019-05-18T16:45:11.404Z,4.30
2019-05-18T16:51:16.073Z,4.50
2019-05-18T16:57:20.784Z,4.20
2019-05-18T17:03:25.412Z,5.00
2019-05-18T17:09:30.014Z,4.10
2019-05-18T17:15:36.371Z,5.10
2019-05-18T17:21:41.026Z,4.20
2019-05-18T17:27:45.597Z,4.13
2019-05-18T17:33:50.251Z,4.40
2019-05-18T17:39:54.835Z,3.83
2019-05-18T17:45:59.449Z,3.87
2019-05-18T17:52:04.138Z,4.07
2019-05-18T17:58:08.854Z,4.50
2019-05-18T18:04:13.525Z,4.47
2019-05-18T18:10:18.643Z,4.30
2019-05-18T18:16:23.183Z,4.20
2019-05-18T18:22:27.780Z,4.30
2019-05-18T18:28:32.415Z,4.23
2019-05-18T18:34:37.110Z,4.47
2019-05-18T18:40:42.002Z,4.27
2019-05-18T18:46:48.265Z,4.80
2019-05-18T18:52:52.898Z,5.10
2019-05-18T18:58:57.621Z,5.60
2019-05-18T19:05:02.915Z,5.57
2019-05-18T19:11:07.789Z,5.80
2019-05-18T19:17:12.497Z,4.97
2019-05-18T19:23:17.091Z,5.00
2019-05-18T19:29:21.822Z,5.27
2019-05-18T19:35:27.222Z,5.47
2019-05-18T19:41:32.125Z,5.57
2019-05-18T19:47:37.643Z,5.87
2019-05-18T19:53:42.549Z,5.67
2019-05-18T19:59:47.858Z,5.60
2019-05-18T20:05:52.561Z,5.53
2019-05-18T20:11:57.229Z,6.60
2019-05-18T20:18:01.896Z,5.90
2019-05-18T20:24:06.619Z,5.83
2019-05-18T20:30:12.161Z,5.07
2019-05-18T20:36:16.852Z,6.00
2019-05-18T20:42:21.695Z,6.43
2019-05-18T20:48:26.770Z,6.57
2019-05-18T20:54:31.564Z,5.80
2019-05-18T21:00:38.458Z,6.10
2019-05-18T21:06:45.416Z,6.00
2019-05-18T21:12:49.359Z,5.90
2019-05-18T21:18:54.110Z,6.13
2019-05-18T21:24:58.722Z,6.30
2019-05-18T21:31:04.674Z,5.80
2019-05-18T21:37:09.659Z,6.80
2019-05-18T21:43:14.470Z,6.70
2019-05-18T21:49:19.932Z,5.70
2019-05-18T21:55:24.553Z,6.67
2019-05-18T22:01:29.252Z,6.53
2019-05-18T22:07:34.006Z,6.03
2019-05-18T22:13:38.559Z,6.13
2019-05-18T22:19:43.200Z,7.30
2019-05-18T22:25:47.768Z,5.60
2019-05-18T22:31:52.435Z,5.80
2019-05-18T22:37:57.056Z,6.60
2019-05-18T22:44:01.714Z,7.87
2019-05-18T22:50:08.400Z,7.13
2019-05-18T22:56:12.991Z,6.13
2019-05-18T23:02:17.557Z,7.17
2019-05-18T23:08:22.238Z,6.77
2019-05-18T23:14:28.384Z,6.33
2019-05-18T23:20:33.006Z,7.30
2019-05-18T23:26:37.705Z,7.57
2019-05-18T23:32:42.331Z,7.77
2019-05-18T23:38:46.938Z,7.77
2019-05-18T23:44:51.555Z,6.87
2019-05-18T23:50:56.172Z,7.33
2019-05-18T23:57:00.902Z,7.40
